Time;durP1;ratioP1;P1;durP2;ratioP2;P2;SDS_P1;SDS_P2;PMS_P1;PMS_P2;Temp;Humidity;BMP_temperature;BMP_pressure;BME280_temperature;BME280_humidity;BME280_pressure;Samples;Min_cycle;Max_cycle;Signal;HPM_P1;HPM_P2
2021/12/19 00:10:30;;;;;;;14.40;6.70;;;0.70;99.90;;;;;;4143797;28;20321;-64
2021/12/19 00:12:31;;;;;;;15.00;7.40;;;0.80;99.90;;;;;;4142322;28;20268;-68
2021/12/19 00:14:32;;;;;;;16.57;7.37;;;0.80;99.90;;;;;;4144348;28;20279;-62
2021/12/19 00:16:34;;;;;;;14.97;6.97;;;0.80;99.90;;;;;;4142353;28;20329;-64
2021/12/19 00:18:35;;;;;;;13.80;6.40;;;0.70;99.90;;;;;;4143343;28;20310;-64
2021/12/19 00:20:36;;;;;;;13.13;6.67;;;0.80;99.90;;;;;;4142878;28;20338;-63
2021/12/19 00:22:38;;;;;;;11.90;5.67;;;0.70;99.90;;;;;;4143028;28;20272;-64
2021/12/19 00:24:39;;;;;;;13.93;7.03;;;0.70;99.90;;;;;;4142772;28;20306;-63
2021/12/19 00:26:40;;;;;;;14.50;6.00;;;0.70;99.90;;;;;;4142175;28;20346;-65
2021/12/19 00:28:42;;;;;;;13.20;6.80;;;0.70;99.90;;;;;;4142657;28;20263;-71
2021/12/19 00:30:43;;;;;;;15.30;7.37;;;0.70;99.90;;;;;;4141802;28;20707;-65
2021/12/19 00:32:44;;;;;;;13.90;6.97;;;0.70;99.90;;;;;;4143362;28;20267;-64
2021/12/19 00:34:45;;;;;;;12.83;6.87;;;0.70;99.90;;;;;;4141448;28;20279;-63
2021/12/19 00:36:47;;;;;;;15.17;6.93;;;0.70;99.90;;;;;;4143057;28;20280;-62
2021/12/19 00:38:48;;;;;;;14.10;6.83;;;0.70;99.90;;;;;;4141948;28;21166;-63
2021/12/19 00:40:49;;;;;;;10.53;6.17;;;0.70;99.90;;;;;;4143534;28;20676;-63
2021/12/19 00:43:01;;;;;;;15.30;7.27;;;0.70;99.90;;;;;;4140977;28;20271;-62
2021/12/19 00:45:16;;;;;;;13.07;6.70;;;0.70;99.90;;;;;;4142573;28;20276;-67
2021/12/19 00:47:17;;;;;;;11.17;6.63;;;0.70;99.90;;;;;;4141915;28;20689;-62
2021/12/19 00:49:20;;;;;;;11.97;6.77;;;0.70;99.90;;;;;;4142965;28;20267;-64
2021/12/19 00:51:23;;;;;;;14.90;6.50;;;0.70;99.90;;;;;;4141976;28;20275;-62
2021/12/19 00:53:25;;;;;;;14.17;7.50;;;0.70;99.90;;;;;;4142935;28;20268;-63
2021/12/19 00:55:27;;;;;;;13.37;6.97;;;0.70;99.90;;;;;;4141639;28;20939;-66
2021/12/19 00:57:28;;;;;;;13.57;6.57;;;0.70;99.90;;;;;;4142603;28;20338;-63
2021/12/19 00:59:30;;;;;;;13.40;7.17;;;0.70;99.90;;;;;;4141149;28;20353;-65
2021/12/19 01:01:33;;;;;;;17.70;6.90;;;0.70;99.90;;;;;;4142271;28;20260;-62
2021/12/19 01:03:34;;;;;;;14.17;7.10;;;0.70;99.90;;;;;;4141768;28;20678;-66
2021/12/19 01:05:37;;;;;;;10.43;6.50;;;0.70;99.90;;;;;;4142436;28;20283;-63
2021/12/19 01:07:39;;;;;;;13.00;6.93;;;0.70;99.90;;;;;;4142161;28;20369;-62
2021/12/19 01:09:40;;;;;;;11.83;6.20;;;0.70;99.90;;;;;;4140321;28;20267;-64
2021/12/19 01:11:41;;;;;;;15.00;7.03;;;0.70;99.90;;;;;;4142771;28;20747;-63
2021/12/19 01:13:43;;;;;;;11.97;6.43;;;0.70;99.90;;;;;;4141325;28;20272;-62
2021/12/19 01:15:46;;;;;;;11.93;6.20;;;0.70;99.90;;;;;;4142643;28;20275;-65
2021/12/19 01:17:47;;;;;;;12.70;6.50;;;0.70;99.90;;;;;;4141103;28;20275;-62
2021/12/19 01:19:48;;;;;;;16.43;6.93;;;0.60;99.90;;;;;;4141987;28;20744;-62
2021/12/19 01:21:50;;;;;;;13.63;6.90;;;0.60;99.90;;;;;;4141924;28;20671;-62
2021/12/19 01:23:51;;;;;;;13.93;6.80;;;0.70;99.90;;;;;;4142812;28;20403;-62
2021/12/19 01:25:52;;;;;;;12.90;6.17;;;0.70;99.90;;;;;;4141254;28;20275;-62
2021/12/19 01:27:54;;;;;;;11.53;5.60;;;0.70;99.90;;;;;;4142845;28;20271;-62
2021/12/19 01:29:55;;;;;;;10.53;6.50;;;0.70;99.90;;;;;;4141038;28;20333;-63
2021/12/19 01:31:56;;;;;;;13.07;6.63;;;0.70;99.90;;;;;;4142255;28;20275;-72
2021/12/19 01:33:57;;;;;;;12.27;6.20;;;0.70;99.90;;;;;;4141201;28;20259;-63
2021/12/19 01:35:59;;;;;;;11.27;5.70;;;0.80;99.90;;;;;;4141073;28;20314;-61
2021/12/19 01:38:00;;;;;;;11.13;6.63;;;0.80;99.90;;;;;;4142094;28;20272;-62
2021/12/19 01:40:04;;;;;;;14.40;6.70;;;0.80;99.90;;;;;;4140952;28;20271;-61
2021/12/19 01:42:09;;;;;;;15.33;6.70;;;0.70;99.90;;;;;;4142327;28;20683;-62
2021/12/19 01:44:10;;;;;;;12.30;6.47;;;0.70;99.90;;;;;;4140698;28;20349;-62
2021/12/19 01:46:12;;;;;;;12.00;5.80;;;0.80;99.90;;;;;;4142195;28;20295;-61
2021/12/19 01:48:14;;;;;;;11.97;6.13;;;0.70;99.90;;;;;;4140482;28;20794;-62
2021/12/19 01:50:15;;;;;;;10.57;6.40;;;0.70;99.90;;;;;;4142179;28;20318;-61
2021/12/19 01:52:16;;;;;;;10.40;5.63;;;0.80;99.90;;;;;;4141109;28;20263;-63
2021/12/19 01:54:18;;;;;;;17.20;6.90;;;0.70;99.90;;;;;;4141830;28;20317;-60
2021/12/19 01:56:19;;;;;;;14.53;7.00;;;0.70;99.90;;;;;;4141093;28;20279;-63
2021/12/19 01:58:20;;;;;;;10.73;6.10;;;0.70;99.90;;;;;;4141653;28;20325;-61
2021/12/19 02:00:24;;;;;;;10.83;5.70;;;0.70;99.90;;;;;;4140388;28;20353;-61
2021/12/19 02:02:25;;;;;;;13.47;6.43;;;0.70;99.90;;;;;;4141871;28;20271;-62
2021/12/19 02:04:30;;;;;;;14.03;6.67;;;0.70;99.90;;;;;;4140500;28;20271;-66
2021/12/19 02:06:31;;;;;;;12.43;7.13;;;0.70;99.90;;;;;;4141516;28;20279;-62
2021/12/19 02:08:32;;;;;;;11.70;5.90;;;0.70;99.90;;;;;;4141389;28;20779;-62
2021/12/19 02:10:35;;;;;;;13.33;6.50;;;0.70;99.90;;;;;;4141100;28;20325;-63
2021/12/19 02:12:38;;;;;;;14.03;6.57;;;0.60;99.90;;;;;;4141767;28;20700;-65
2021/12/19 02:14:39;;;;;;;13.73;6.53;;;0.60;99.90;;;;;;4140370;28;20728;-66
2021/12/19 02:16:41;;;;;;;14.13;6.57;;;0.60;99.90;;;;;;4140082;28;20688;-63
2021/12/19 02:18:42;;;;;;;10.10;5.53;;;0.60;99.90;;;;;;4140461;28;20275;-63
2021/12/19 02:20:50;;;;;;;12.10;6.03;;;0.60;99.90;;;;;;4141665;28;20813;-63
2021/12/19 02:22:52;;;;;;;12.03;6.70;;;0.60;99.90;;;;;;4140686;28;20334;-63
2021/12/19 02:24:54;;;;;;;12.43;6.23;;;0.60;99.90;;;;;;4141918;28;20353;-61
2021/12/19 02:26:55;;;;;;;13.47;6.53;;;0.60;99.90;;;;;;4140472;28;20862;-69
2021/12/19 02:28:56;;;;;;;12.00;6.37;;;0.60;99.90;;;;;;4141563;28;20798;-64
2021/12/19 02:30:58;;;;;;;13.40;6.80;;;0.60;99.90;;;;;;4140474;28;20279;-62
2021/12/19 02:32:59;;;;;;;13.87;6.63;;;0.70;99.90;;;;;;4141502;28;20283;-62
2021/12/19 02:35:05;;;;;;;12.97;6.57;;;0.70;99.90;;;;;;4140497;28;20365;-63
2021/12/19 02:37:44;;;;;;;12.83;7.10;;;0.70;99.90;;;;;;4141650;28;20275;-62
2021/12/19 02:48:56;;;;;;;13.73;7.03;;;0.70;99.90;;;;;;4140294;28;20408;-63
2021/12/19 02:50:58;;;;;;;12.73;7.23;;;0.70;99.90;;;;;;4141081;28;20817;-62
2021/12/19 02:52:59;;;;;;;13.47;7.23;;;0.70;99.90;;;;;;4140764;28;20275;-62
2021/12/19 02:55:01;;;;;;;11.87;6.50;;;0.70;99.90;;;;;;4141526;28;20333;-63
2021/12/19 02:57:02;;;;;;;13.10;6.13;;;0.70;99.90;;;;;;4140355;28;20267;-62
2021/12/19 02:59:04;;;;;;;13.37;6.30;;;0.80;99.90;;;;;;4139194;28;20311;-62
2021/12/19 03:01:13;;;;;;;13.70;7.07;;;0.80;99.90;;;;;;4140083;28;20267;-64
2021/12/19 03:03:14;;;;;;;13.17;7.30;;;0.80;99.90;;;;;;4139697;28;20739;-66
2021/12/19 03:05:15;;;;;;;11.60;6.20;;;0.80;99.90;;;;;;4140118;28;20287;-60
2021/12/19 03:07:18;;;;;;;11.07;6.83;;;0.80;99.90;;;;;;4141114;28;20303;-65
2021/12/19 03:12:05;;;;;;;11.73;6.00;;;0.80;99.90;;;;;;4143535;28;20345;-65
2021/12/19 03:18:46;;;;;;;13.03;7.20;;;0.90;99.90;;;;;;4143028;28;20330;-65
2021/12/19 03:20:47;;;;;;;13.50;6.73;;;0.90;99.90;;;;;;4144485;28;20259;-66
2021/12/19 03:22:48;;;;;;;12.00;6.57;;;1.00;99.90;;;;;;4143619;28;21119;-63
2021/12/19 03:24:49;;;;;;;13.33;6.50;;;1.00;99.90;;;;;;4144529;28;20275;-66
2021/12/19 03:26:51;;;;;;;13.80;6.63;;;1.00;99.90;;;;;;4142986;28;20365;-63
2021/12/19 03:28:52;;;;;;;11.50;6.43;;;1.00;99.90;;;;;;4143833;28;20341;-62
2021/12/19 03:30:53;;;;;;;15.30;7.90;;;1.00;99.90;;;;;;4143086;28;20793;-66
2021/12/19 03:32:54;;;;;;;16.10;8.13;;;0.90;99.90;;;;;;4143527;28;20723;-67
2021/12/19 03:34:55;;;;;;;18.47;9.07;;;0.90;99.90;;;;;;4144134;28;20263;-62
2021/12/19 03:36:57;;;;;;;18.50;9.10;;;0.80;99.90;;;;;;4143088;28;20329;-66
2021/12/19 03:39:00;;;;;;;18.67;9.27;;;0.80;99.90;;;;;;4144044;28;20271;-62
2021/12/19 03:41:16;;;;;;;14.40;8.60;;;0.70;99.90;;;;;;4142828;28;20667;-65
2021/12/19 03:43:21;;;;;;;14.33;8.50;;;0.70;99.90;;;;;;4144080;28;20333;-64
2021/12/19 03:45:24;;;;;;;19.00;9.50;;;0.70;99.90;;;;;;4142946;28;20264;-68
2021/12/19 03:47:25;;;;;;;17.33;9.60;;;0.60;99.90;;;;;;4143739;28;20291;-65
2021/12/19 03:49:27;;;;;;;18.90;9.73;;;0.60;99.90;;;;;;4142398;28;20267;-65
2021/12/19 03:51:28;;;;;;;20.10;9.33;;;0.60;99.90;;;;;;4144057;28;20398;-64
2021/12/19 03:53:29;;;;;;;15.80;8.73;;;0.60;99.90;;;;;;4142732;28;20313;-68
2021/12/19 03:55:32;;;;;;;17.83;8.83;;;0.50;99.90;;;;;;4144441;28;20850;-63
2021/12/19 03:57:33;;;;;;;16.57;7.47;;;0.50;99.90;;;;;;4143009;28;20271;-64
2021/12/19 03:59:36;;;;;;;15.13;7.80;;;0.50;99.90;;;;;;4143427;28;20279;-63
2021/12/19 04:01:38;;;;;;;13.40;7.50;;;0.40;99.90;;;;;;4142844;28;20326;-68
2021/12/19 04:03:40;;;;;;;15.93;7.83;;;0.40;99.90;;;;;;4144072;28;21214;-63
2021/12/19 04:05:42;;;;;;;15.50;8.57;;;0.40;99.90;;;;;;4142450;28;20260;-62
2021/12/19 04:07:43;;;;;;;15.83;7.97;;;0.40;99.90;;;;;;4143306;28;20326;-62
2021/12/19 04:09:44;;;;;;;16.67;7.33;;;0.40;99.90;;;;;;4142921;28;20600;-62
2021/12/19 04:11:46;;;;;;;12.80;7.07;;;0.40;99.90;;;;;;4142699;28;20279;-61
2021/12/19 04:13:47;;;;;;;10.97;5.93;;;0.40;99.90;;;;;;4143102;28;20881;-62
2021/12/19 04:15:49;;;;;;;14.00;6.83;;;0.40;99.90;;;;;;4142686;28;20321;-65
2021/12/19 04:17:50;;;;;;;12.13;6.87;;;0.40;99.90;;;;;;4143506;28;20271;-66
2021/12/19 04:19:51;;;;;;;13.60;6.50;;;0.40;99.90;;;;;;4142617;28;20272;-61
2021/12/19 04:21:53;;;;;;;15.73;8.33;;;0.50;99.90;;;;;;4143018;28;20306;-62
2021/12/19 04:23:54;;;;;;;12.03;6.10;;;0.40;99.90;;;;;;4142669;28;20271;-64
2021/12/19 04:25:55;;;;;;;13.50;7.07;;;0.50;99.90;;;;;;4143228;28;20305;-68
2021/12/19 04:27:56;;;;;;;15.57;7.77;;;0.50;99.90;;;;;;4142308;28;20296;-63
2021/12/19 04:29:57;;;;;;;12.67;6.47;;;0.50;99.90;;;;;;4143512;28;20275;-62
2021/12/19 04:31:58;;;;;;;13.30;7.00;;;0.50;99.90;;;;;;4142412;28;20259;-61
2021/12/19 04:33:59;;;;;;;14.83;7.73;;;0.50;99.90;;;;;;4143469;28;20263;-63
2021/12/19 04:36:04;;;;;;;14.93;7.70;;;0.50;99.90;;;;;;4142511;28;21211;-62
2021/12/19 04:40:21;;;;;;;14.57;7.43;;;0.40;99.90;;;;;;4142101;28;20309;-62
2021/12/19 04:52:07;;;;;;;10.20;5.67;;;0.40;99.90;;;;;;4142919;28;20033;-61
2021/12/19 05:03:29;;;;;;;9.13;5.47;;;0.40;99.90;;;;;;4140224;28;20045;-65
2021/12/19 05:14:52;;;;;;;29.27;10.83;;;0.50;99.90;;;;;;4141602;28;20310;-64
2021/12/19 05:16:53;;;;;;;22.10;10.70;;;0.50;99.90;;;;;;4142425;28;20260;-66
2021/12/19 05:19:02;;;;;;;24.03;10.33;;;0.50;99.90;;;;;;4141839;28;20309;-61
2021/12/19 05:21:10;;;;;;;21.50;11.23;;;0.50;99.90;;;;;;4141021;28;20295;-62
2021/12/19 05:23:22;;;;;;;23.93;12.40;;;0.50;99.90;;;;;;4140358;28;20718;-61
2021/12/19 05:25:23;;;;;;;26.43;12.50;;;0.50;99.90;;;;;;4142004;28;20306;-62
2021/12/19 05:27:24;;;;;;;29.47;12.93;;;0.50;99.90;;;;;;4141310;28;20292;-62
2021/12/19 05:29:25;;;;;;;22.20;11.80;;;0.60;99.90;;;;;;4141707;28;21033;-62
2021/12/19 05:31:26;;;;;;;27.40;12.33;;;0.60;99.90;;;;;;4142082;28;20724;-69
2021/12/19 05:33:28;;;;;;;24.97;11.90;;;0.60;99.90;;;;;;4140746;28;20271;-68
2021/12/19 05:35:58;;;;;;;23.37;11.43;;;0.70;99.90;;;;;;4142443;28;20264;-66
2021/12/19 05:46:53;;;;;;;18.77;9.07;;;0.70;99.90;;;;;;4141060;28;20305;-63
2021/12/19 05:48:55;;;;;;;14.90;8.07;;;0.60;99.90;;;;;;4141069;28;20296;-62
2021/12/19 05:50:56;;;;;;;15.47;8.30;;;0.60;99.90;;;;;;4140875;28;20330;-65
2021/12/19 05:52:57;;;;;;;16.83;8.13;;;0.50;99.90;;;;;;4142143;28;20276;-63
2021/12/19 05:54:59;;;;;;;14.60;8.10;;;0.60;99.90;;;;;;4140851;28;20688;-64
2021/12/19 05:57:00;;;;;;;15.33;7.63;;;0.60;99.90;;;;;;4142086;28;20353;-62
2021/12/19 05:59:01;;;;;;;17.13;8.30;;;0.70;99.90;;;;;;4140733;28;20283;-66
2021/12/19 06:01:03;;;;;;;16.23;8.03;;;0.70;99.90;;;;;;4142030;28;20333;-62
2021/12/19 06:03:04;;;;;;;12.83;7.47;;;0.70;99.90;;;;;;4140494;28;20380;-61
2021/12/19 06:05:06;;;;;;;13.93;8.63;;;0.80;99.90;;;;;;4142166;28;20282;-63
2021/12/19 06:07:07;;;;;;;14.60;8.37;;;0.80;99.90;;;;;;4140577;28;20283;-62
2021/12/19 06:09:08;;;;;;;16.70;8.40;;;0.80;99.90;;;;;;4141558;28;20783;-61
2021/12/19 06:11:10;;;;;;;11.97;7.50;;;0.80;99.90;;;;;;4140308;28;20740;-68
2021/12/19 06:13:11;;;;;;;16.83;8.33;;;0.80;99.90;;;;;;4140897;28;20349;-65
2021/12/19 06:15:13;;;;;;;16.53;8.33;;;0.70;99.90;;;;;;4140773;28;20287;-62
2021/12/19 06:17:14;;;;;;;14.00;8.33;;;0.70;99.90;;;;;;4140996;28;20271;-63
2021/12/19 06:19:15;;;;;;;12.63;8.10;;;0.70;99.90;;;;;;4141009;28;20259;-70
2021/12/19 06:21:16;;;;;;;15.60;7.97;;;0.70;99.90;;;;;;4140489;28;20264;-62
2021/12/19 06:23:17;;;;;;;17.93;10.23;;;0.70;99.90;;;;;;4141565;28;20280;-62
2021/12/19 06:25:18;;;;;;;26.13;12.37;;;0.70;99.90;;;;;;4140283;28;20275;-62
2021/12/19 06:27:19;;;;;;;27.13;13.07;;;0.60;99.90;;;;;;4141262;28;20813;-63
2021/12/19 06:29:21;;;;;;;28.63;13.10;;;0.60;99.90;;;;;;4139108;28;20337;-63
2021/12/19 06:31:22;;;;;;;23.67;12.87;;;0.60;99.90;;;;;;4141097;28;20330;-62
2021/12/19 06:33:23;;;;;;;38.67;16.60;;;0.60;99.90;;;;;;4139722;28;20287;-63
2021/12/19 06:35:29;;;;;;;29.77;13.47;;;0.60;99.90;;;;;;4141570;28;20279;-63
2021/12/19 06:37:30;;;;;;;30.80;15.10;;;0.60;99.90;;;;;;4140061;28;20280;-63
2021/12/19 06:39:31;;;;;;;36.23;17.63;;;0.70;99.90;;;;;;4141162;28;20690;-62
2021/12/19 06:41:36;;;;;;;38.13;17.60;;;0.70;99.90;;;;;;4139961;28;20283;-64
2021/12/19 06:43:37;;;;;;;34.97;16.70;;;0.70;99.90;;;;;;4140402;28;20879;-64
2021/12/19 06:45:39;;;;;;;37.30;17.30;;;0.70;99.90;;;;;;4139475;28;20271;-64
2021/12/19 06:47:40;;;;;;;35.30;16.67;;;0.70;99.90;;;;;;4140543;28;20291;-64
2021/12/19 06:49:41;;;;;;;28.37;13.60;;;0.70;99.90;;;;;;4140128;28;20275;-63
2021/12/19 06:51:42;;;;;;;28.97;14.30;;;0.70;99.90;;;;;;4139863;28;20283;-63
2021/12/19 06:53:44;;;;;;;32.10;14.47;;;0.70;99.90;;;;;;4140862;28;20321;-63
2021/12/19 06:55:45;;;;;;;30.47;13.30;;;0.70;99.90;;;;;;4139319;28;20252;-61
2021/12/19 06:57:46;;;;;;;32.20;14.67;;;0.70;99.90;;;;;;4140842;28;20793;-65
2021/12/19 06:59:48;;;;;;;30.77;14.57;;;0.80;99.90;;;;;;4139592;28;20333;-64
2021/12/19 07:01:49;;;;;;;29.63;15.10;;;0.70;99.90;;;;;;4140864;28;21164;-62
2021/12/19 07:03:50;;;;;;;32.03;15.43;;;0.70;99.90;;;;;;4140160;28;20271;-63
2021/12/19 07:05:51;;;;;;;35.67;15.77;;;0.80;99.90;;;;;;4140465;28;20566;-67
2021/12/19 07:07:53;;;;;;;34.90;16.37;;;0.70;99.90;;;;;;4139797;28;20373;-63
2021/12/19 07:09:54;;;;;;;34.17;17.13;;;0.70;99.90;;;;;;4140533;28;20278;-65
2021/12/19 07:11:55;;;;;;;34.80;14.90;;;0.80;99.90;;;;;;4139763;28;20279;-66
2021/12/19 07:13:56;;;;;;;33.10;15.40;;;0.80;99.90;;;;;;4140641;28;20330;-63
2021/12/19 07:15:57;;;;;;;25.53;13.30;;;0.70;99.90;;;;;;4139772;28;20267;-64
2021/12/19 07:18:02;;;;;;;28.07;14.23;;;0.70;99.90;;;;;;4140032;28;20365;-63
2021/12/19 07:20:05;;;;;;;35.20;16.53;;;0.70;99.90;;;;;;4139370;28;20283;-68
2021/12/19 07:22:06;;;;;;;33.30;15.93;;;0.70;99.90;;;;;;4139514;28;20271;-62
2021/12/19 07:24:07;;;;;;;28.70;14.47;;;0.70;99.90;;;;;;4140503;28;20828;-62
2021/12/19 07:26:08;;;;;;;28.37;13.87;;;0.70;99.90;;;;;;4139947;28;20329;-62
2021/12/19 07:28:10;;;;;;;29.73;14.50;;;0.80;99.90;;;;;;4140225;28;20287;-62
2021/12/19 07:30:12;;;;;;;26.70;13.13;;;0.80;99.90;;;;;;4139369;28;20275;-64
2021/12/19 07:32:13;;;;;;;26.47;12.57;;;0.80;99.90;;;;;;4140670;28;20267;-63
2021/12/19 07:34:14;;;;;;;24.77;12.90;;;0.80;99.90;;;;;;4139041;28;20279;-63
2021/12/19 07:36:18;;;;;;;31.60;14.00;;;0.80;99.90;;;;;;4140646;28;20687;-62
2021/12/19 07:38:27;;;;;;;38.17;16.57;;;0.90;99.90;;;;;;4139446;28;20363;-63
2021/12/19 07:40:35;;;;;;;43.93;18.57;;;1.00;99.90;;;;;;4140233;28;20310;-62
2021/12/19 07:42:36;;;;;;;34.90;15.53;;;1.00;99.90;;;;;;4139291;28;20326;-63
2021/12/19 07:44:38;;;;;;;37.03;16.47;;;0.90;99.90;;;;;;4140075;28;20298;-65
2021/12/19 07:46:39;;;;;;;39.23;16.57;;;1.00;99.90;;;;;;4139161;28;20298;-61
2021/12/19 07:48:41;;;;;;;35.80;16.17;;;1.10;99.90;;;;;;4140210;28;20349;-63
2021/12/19 07:50:42;;;;;;;33.83;15.77;;;1.10;99.90;;;;;;4138980;28;20274;-64
2021/12/19 07:52:43;;;;;;;34.40;16.40;;;1.20;99.90;;;;;;4140054;28;20330;-62
2021/12/19 07:54:45;;;;;;;32.83;16.50;;;1.10;99.90;;;;;;4138706;28;20341;-62
2021/12/19 07:56:46;;;;;;;36.97;16.03;;;1.20;99.90;;;;;;4140927;28;20334;-63
2021/12/19 07:58:47;;;;;;;29.07;14.87;;;1.20;99.90;;;;;;4142717;28;20724;-61
2021/12/19 08:00:49;;;;;;;32.27;14.27;;;1.20;99.90;;;;;;4142316;28;20341;-61
2021/12/19 08:02:50;;;;;;;29.30;14.60;;;1.20;99.90;;;;;;4143336;28;20326;-61
2021/12/19 08:04:51;;;;;;;27.27;14.23;;;1.20;99.90;;;;;;4141929;28;20349;-59
2021/12/19 08:06:52;;;;;;;32.83;17.50;;;1.10;99.90;;;;;;4143294;28;20343;-61
2021/12/19 08:08:55;;;;;;;27.83;14.67;;;1.10;99.90;;;;;;4142117;28;20353;-61
2021/12/19 08:13:17;;;;;;;23.95;13.00;;;1.00;99.90;;;;;;4142176;28;20330;-67
2021/12/19 08:15:18;;;;;;;27.13;14.37;;;1.00;99.90;;;;;;4143410;28;20026;-66
2021/12/19 08:17:21;;;;;;;31.30;15.37;;;1.10;99.90;;;;;;4141812;28;20609;-66
2021/12/19 08:19:22;;;;;;;24.00;10.97;;;1.00;99.90;;;;;;4143003;28;20325;-65
2021/12/19 08:21:23;;;;;;;19.07;10.33;;;1.00;99.90;;;;;;4141810;28;20263;-67
2021/12/19 08:23:24;;;;;;;22.37;10.77;;;1.00;99.90;;;;;;4143479;28;20823;-64
2021/12/19 08:25:26;;;;;;;19.07;9.57;;;1.10;99.90;;;;;;4141541;28;20264;-66
2021/12/19 08:27:27;;;;;;;14.43;7.57;;;1.10;99.90;;;;;;4142769;28;20318;-62
2021/12/19 08:29:28;;;;;;;15.93;6.90;;;1.10;99.90;;;;;;4140362;28;20291;-64
2021/12/19 08:31:30;;;;;;;13.47;7.43;;;1.00;99.90;;;;;;4140722;28;20279;-62
2021/12/19 08:33:31;;;;;;;15.03;8.33;;;1.00;99.90;;;;;;4142201;28;20414;-65
2021/12/19 08:35:33;;;;;;;18.93;9.87;;;1.00;99.90;;;;;;4142121;28;20268;-74
2021/12/19 08:37:34;;;;;;;15.40;9.17;;;1.00;99.90;;;;;;4142029;28;20354;-60
2021/12/19 08:39:37;;;;;;;17.20;8.57;;;1.00;99.90;;;;;;4141595;28;20806;-61
2021/12/19 08:41:39;;;;;;;22.03;9.80;;;1.20;99.90;;;;;;4142534;28;20275;-61
2021/12/19 08:43:40;;;;;;;14.40;8.00;;;1.10;99.90;;;;;;4140876;28;20523;-64
2021/12/19 08:45:42;;;;;;;11.93;7.13;;;1.10;99.90;;;;;;4142616;28;20325;-58
2021/12/19 08:47:43;;;;;;;12.67;7.47;;;1.10;99.90;;;;;;4141551;28;20333;-61
2021/12/19 08:49:44;;;;;;;15.77;8.77;;;1.10;99.90;;;;;;4142726;28;20279;-63
2021/12/19 08:51:46;;;;;;;11.97;7.20;;;1.10;99.90;;;;;;4140548;28;20409;-59
2021/12/19 08:53:47;;;;;;;13.10;7.23;;;1.10;99.90;;;;;;4142198;28;20325;-60
2021/12/19 08:55:48;;;;;;;12.67;6.70;;;1.00;99.90;;;;;;4135160;28;20268;-64
2021/12/19 08:57:49;;;;;;;14.13;7.80;;;1.10;99.90;;;;;;4129966;28;20289;-63
2021/12/19 08:59:50;;;;;;;13.30;8.03;;;1.00;99.90;;;;;;4137262;28;20369;-60
2021/12/19 09:01:53;;;;;;;14.70;7.13;;;1.10;99.90;;;;;;4141295;28;21073;-58
2021/12/19 09:03:55;;;;;;;11.83;6.53;;;1.20;99.90;;;;;;4141512;28;20842;-60
2021/12/19 09:05:56;;;;;;;11.27;6.43;;;1.20;99.90;;;;;;4141060;28;20318;-56
2021/12/19 09:07:58;;;;;;;11.47;6.47;;;1.20;99.90;;;;;;4140053;28;20263;-59
2021/12/19 09:09:59;;;;;;;12.90;7.33;;;1.30;99.90;;;;;;4140656;28;20318;-57
2021/12/19 09:12:00;;;;;;;12.40;6.60;;;1.30;99.90;;;;;;4141733;28;20318;-61
2021/12/19 09:14:02;;;;;;;11.73;6.43;;;1.40;99.90;;;;;;4141078;28;20349;-60
2021/12/19 09:16:03;;;;;;;11.50;6.50;;;1.40;99.90;;;;;;4142130;28;20329;-61
2021/12/19 09:18:04;;;;;;;12.73;7.73;;;1.40;99.90;;;;;;4140534;28;20263;-60
2021/12/19 09:20:07;;;;;;;14.97;7.67;;;1.50;99.90;;;;;;4141666;28;20271;-65
2021/12/19 09:22:08;;;;;;;12.17;6.87;;;1.50;99.90;;;;;;4140169;28;20321;-61
2021/12/19 09:24:09;;;;;;;15.33;7.20;;;1.60;99.90;;;;;;4142587;28;20275;-60
2021/12/19 09:26:11;;;;;;;15.97;7.70;;;1.70;99.90;;;;;;4140607;28;20342;-61
2021/12/19 09:28:13;;;;;;;16.47;8.90;;;1.70;99.90;;;;;;4141904;28;20299;-61
2021/12/19 09:30:14;;;;;;;15.80;9.20;;;1.70;99.90;;;;;;4140664;28;20279;-61
2021/12/19 09:32:15;;;;;;;13.03;7.63;;;1.80;99.90;;;;;;4140792;28;20291;-60
2021/12/19 09:34:16;;;;;;;13.23;7.97;;;1.90;99.90;;;;;;4140414;28;20326;-60
2021/12/19 09:36:18;;;;;;;13.50;7.53;;;2.00;99.90;;;;;;4140812;28;20271;-64
2021/12/19 09:38:20;;;;;;;17.67;9.10;;;1.90;99.90;;;;;;4141191;28;20275;-62
2021/12/19 09:40:25;;;;;;;16.63;8.90;;;1.90;99.90;;;;;;4140006;28;20759;-60
2021/12/19 09:42:33;;;;;;;14.97;7.90;;;1.90;99.90;;;;;;4137718;28;20329;-62
2021/12/19 09:44:35;;;;;;;12.17;6.40;;;1.90;99.90;;;;;;4136767;28;20938;-61
2021/12/19 09:46:38;;;;;;;11.13;6.77;;;2.00;99.90;;;;;;4137620;28;20353;-62
2021/12/19 09:48:41;;;;;;;13.87;6.43;;;2.00;99.90;;;;;;4135781;28;20341;-60
2021/12/19 09:50:42;;;;;;;13.83;7.40;;;2.00;99.90;;;;;;4136658;28;20279;-61
2021/12/19 09:52:49;;;;;;;12.13;6.70;;;2.00;99.90;;;;;;4135356;28;20275;-63
2021/12/19 09:54:51;;;;;;;10.23;6.10;;;2.00;99.90;;;;;;4137352;28;20326;-60
2021/12/19 09:56:52;;;;;;;12.77;7.30;;;2.00;99.90;;;;;;4139597;28;20275;-61
2021/12/19 09:58:53;;;;;;;13.10;6.87;;;2.00;99.90;;;;;;4140645;28;20280;-63
2021/12/19 10:00:54;;;;;;;16.57;8.37;;;2.00;99.90;;;;;;4140326;28;20326;-61
2021/12/19 10:02:55;;;;;;;14.80;7.77;;;2.00;99.90;;;;;;4140607;28;20663;-60
2021/12/19 10:04:57;;;;;;;11.27;6.50;;;2.10;99.90;;;;;;4137539;28;20317;-63
2021/12/19 10:07:09;;;;;;;11.90;6.73;;;2.20;99.90;;;;;;4137696;28;20330;-60
2021/12/19 10:09:18;;;;;;;9.83;5.90;;;2.20;99.90;;;;;;4134179;28;20722;-63
2021/12/19 10:11:45;;;;;;;10.50;5.83;;;2.20;99.90;;;;;;4137126;28;20291;-62
2021/12/19 10:13:46;;;;;;;11.00;6.13;;;2.10;99.90;;;;;;4134120;28;20877;-61
2021/12/19 10:15:47;;;;;;;31.50;15.17;;;2.10;99.90;;;;;;4137144;28;20337;-62
2021/12/19 10:18:03;;;;;;;11.33;6.50;;;2.10;99.90;;;;;;4135400;28;20290;-62
2021/12/19 10:20:10;;;;;;;10.37;5.87;;;2.10;99.90;;;;;;4135325;28;20275;-59
2021/12/19 10:22:23;;;;;;;9.33;5.97;;;2.10;99.90;;;;;;4134648;28;20314;-62
2021/12/19 10:24:32;;;;;;;8.53;5.40;;;2.10;99.90;;;;;;4135404;28;20291;-61
2021/12/19 10:26:44;;;;;;;10.80;5.60;;;2.10;99.90;;;;;;4135851;28;20275;-63
2021/12/19 10:28:52;;;;;;;9.80;5.57;;;2.10;99.90;;;;;;4135426;28;20787;-61
2021/12/19 10:30:53;;;;;;;11.17;5.50;;;2.10;99.90;;;;;;4133875;28;21173;-62
2021/12/19 10:32:59;;;;;;;9.30;5.73;;;2.00;99.90;;;;;;4135684;28;20276;-68
2021/12/19 10:35:21;;;;;;;11.00;6.20;;;2.00;99.90;;;;;;4134559;28;20279;-59
2021/12/19 10:37:32;;;;;;;12.10;6.80;;;2.00;99.90;;;;;;4134932;28;20295;-60
2021/12/19 10:39:39;;;;;;;12.60;5.93;;;2.10;99.90;;;;;;4123002;28;20834;-61
2021/12/19 10:41:42;;;;;;;14.17;7.60;;;2.10;99.90;;;;;;4136212;28;20287;-60
2021/12/19 10:44:12;;;;;;;10.97;6.67;;;2.10;99.90;;;;;;4134717;28;20271;-67
2021/12/19 10:46:13;;;;;;;12.40;7.40;;;2.10;99.90;;;;;;4136696;28;20271;-66
2021/12/19 10:48:34;;;;;;;18.30;8.50;;;2.10;99.90;;;;;;4134181;28;21065;-59
2021/12/19 10:51:05;;;;;;;14.00;7.77;;;2.10;99.90;;;;;;4135384;28;20691;-61
2021/12/19 10:53:06;;;;;;;12.45;7.10;;;2.10;99.90;;;;;;4136372;28;21050;-60
2021/12/19 10:55:10;;;;;;;13.53;8.07;;;2.20;99.90;;;;;;4139002;28;20056;-61
2021/12/19 10:57:13;;;;;;;15.00;6.97;;;2.20;99.90;;;;;;4135872;28;20279;-60
2021/12/19 10:59:17;;;;;;;12.80;7.87;;;2.10;99.90;;;;;;4134829;28;20389;-60
2021/12/19 11:01:26;;;;;;;11.47;7.13;;;2.00;99.90;;;;;;4134286;28;20271;-62
2021/12/19 11:03:38;;;;;;;15.57;8.13;;;2.00;99.90;;;;;;4135043;28;20272;-61
2021/12/19 11:05:40;;;;;;;15.57;8.77;;;2.00;99.90;;;;;;4134584;28;20695;-66
2021/12/19 11:08:08;;;;;;;16.53;9.10;;;2.00;99.90;;;;;;4134662;28;20283;-60
2021/12/19 11:10:26;;;;;;;14.20;8.20;;;2.00;99.90;;;;;;4136390;28;20287;-66
2021/12/19 11:12:27;;;;;;;16.73;9.17;;;2.00;99.90;;;;;;4138261;28;20322;-61
2021/12/19 11:14:33;;;;;;;14.80;7.67;;;2.00;99.90;;;;;;4138285;28;20341;-62
2021/12/19 11:16:35;;;;;;;15.20;8.57;;;2.00;99.90;;;;;;4138863;28;20330;-61
2021/12/19 11:18:36;;;;;;;14.10;7.83;;;2.00;99.90;;;;;;4133518;28;20271;-61
2021/12/19 11:20:37;;;;;;;14.60;7.93;;;2.00;99.90;;;;;;4134452;28;20275;-63
2021/12/19 11:22:38;;;;;;;14.40;8.00;;;2.00;99.90;;;;;;4133816;28;20321;-62
2021/12/19 11:24:39;;;;;;;12.93;7.87;;;2.10;99.90;;;;;;4137134;28;20365;-62
2021/12/19 11:26:42;;;;;;;15.40;8.20;;;2.10;99.90;;;;;;4138867;28;20310;-62
2021/12/19 11:28:43;;;;;;;14.90;7.83;;;2.10;99.90;;;;;;4139599;28;20688;-63
2021/12/19 11:30:45;;;;;;;13.67;8.20;;;2.10;99.90;;;;;;4139512;28;20275;-64
2021/12/19 11:33:09;;;;;;;16.50;8.50;;;2.00;99.90;;;;;;4140457;28;20276;-61
2021/12/19 11:35:14;;;;;;;13.33;7.87;;;2.00;99.90;;;;;;4143440;28;20279;-60
2021/12/19 11:37:23;;;;;;;17.13;9.70;;;2.00;99.90;;;;;;4142396;28;20683;-65
2021/12/19 11:39:31;;;;;;;19.97;9.90;;;2.10;99.90;;;;;;4143149;28;20271;-60
2021/12/19 11:41:33;;;;;;;20.57;12.10;;;2.10;99.90;;;;;;4141560;28;20275;-58
2021/12/19 11:43:40;;;;;;;17.47;10.30;;;2.10;99.90;;;;;;4141716;28;20337;-61
2021/12/19 11:45:47;;;;;;;21.40;10.67;;;2.10;99.90;;;;;;4141735;28;20341;-63
2021/12/19 11:47:55;;;;;;;25.53;12.00;;;2.20;99.90;;;;;;4143025;28;20321;-63